sensor_id;sensor_type;location;lat;lon;timestamp;P1;durP1;ratioP1;P2;durP2;ratioP2
12476;SDS011;6303;51.504;6.300;2022-09-21T00:01:59;1.05;;;1.00;;
12476;SDS011;6303;51.504;6.300;2022-09-21T00:04:26;1.50;;;1.00;;
12476;SDS011;6303;51.504;6.300;2022-09-21T00:06:53;0.93;;;0.93;;
12476;SDS011;6303;51.504;6.300;2022-09-21T00:09:22;1.48;;;1.00;;
12476;SDS011;6303;51.504;6.300;2022-09-21T00:11:49;1.05;;;0.95;;
12476;SDS011;6303;51.504;6.300;2022-09-21T00:14:17;3.05;;;1.23;;
12476;SDS011;6303;51.504;6.300;2022-09-21T00:16:44;2.25;;;1.00;;
12476;SDS011;6303;51.504;6.300;2022-09-21T00:19:11;0.90;;;0.90;;
12476;SDS011;6303;51.504;6.300;2022-09-21T00:21:38;1.73;;;1.00;;
12476;SDS011;6303;51.504;6.300;2022-09-21T00:24:05;1.55;;;1.00;;
12476;SDS011;6303;51.504;6.300;2022-09-21T00:26:34;0.98;;;0.98;;
12476;SDS011;6303;51.504;6.300;2022-09-21T00:29:02;0.90;;;0.90;;
12476;SDS011;6303;51.504;6.300;2022-09-21T00:31:30;1.08;;;1.02;;
12476;SDS011;6303;51.504;6.300;2022-09-21T00:33:57;0.80;;;0.80;;
12476;SDS011;6303;51.504;6.300;2022-09-21T00:36:25;1.13;;;1.00;;
12476;SDS011;6303;51.504;6.300;2022-09-21T00:38:54;1.65;;;0.90;;
12476;SDS011;6303;51.504;6.300;2022-09-21T00:41:23;1.02;;;1.00;;
12476;SDS011;6303;51.504;6.300;2022-09-21T00:46:49;1.20;;;1.10;;
12476;SDS011;6303;51.504;6.300;2022-09-21T00:49:18;1.30;;;1.10;;
12476;SDS011;6303;51.504;6.300;2022-09-21T00:51:46;1.00;;;1.00;;
12476;SDS011;6303;51.504;6.300;2022-09-21T00:54:15;1.35;;;0.90;;
12476;SDS011;6303;51.504;6.300;2022-09-21T00:56:46;1.67;;;1.10;;
12476;SDS011;6303;51.504;6.300;2022-09-21T00:59:13;1.00;;;1.00;;
12476;SDS011;6303;51.504;6.300;2022-09-21T01:01:44;1.08;;;0.90;;
12476;SDS011;6303;51.504;6.300;2022-09-21T01:04:13;1.00;;;1.00;;
12476;SDS011;6303;51.504;6.300;2022-09-21T01:06:42;1.25;;;1.10;;
12476;SDS011;6303;51.504;6.300;2022-09-21T01:09:10;1.48;;;1.25;;
12476;SDS011;6303;51.504;6.300;2022-09-21T01:11:40;1.15;;;1.02;;
12476;SDS011;6303;51.504;6.300;2022-09-21T01:14:25;1.20;;;1.20;;
12476;SDS011;6303;51.504;6.300;2022-09-21T01:17:05;1.05;;;0.88;;
12476;SDS011;6303;51.504;6.300;2022-09-21T01:19:55;1.88;;;1.00;;
12476;SDS011;6303;51.504;6.300;2022-09-21T01:22:42;1.00;;;1.00;;
12476;SDS011;6303;51.504;6.300;2022-09-21T01:25:20;1.02;;;1.02;;
12476;SDS011;6303;51.504;6.300;2022-09-21T01:28:00;0.98;;;0.98;;
12476;SDS011;6303;51.504;6.300;2022-09-21T01:30:36;1.00;;;1.00;;
12476;SDS011;6303;51.504;6.300;2022-09-21T01:33:07;0.93;;;0.93;;
12476;SDS011;6303;51.504;6.300;2022-09-21T01:35:40;1.35;;;1.00;;
12476;SDS011;6303;51.504;6.300;2022-09-21T01:38:12;1.00;;;1.00;;
12476;SDS011;6303;51.504;6.300;2022-09-21T01:40:44;1.35;;;1.25;;
12476;SDS011;6303;51.504;6.300;2022-09-21T01:43:17;0.80;;;0.80;;
12476;SDS011;6303;51.504;6.300;2022-09-21T01:45:51;0.90;;;0.90;;
12476;SDS011;6303;51.504;6.300;2022-09-21T01:48:20;0.93;;;0.93;;
12476;SDS011;6303;51.504;6.300;2022-09-21T01:50:50;1.00;;;1.00;;
12476;SDS011;6303;51.504;6.300;2022-09-21T01:53:20;0.70;;;0.70;;
12476;SDS011;6303;51.504;6.300;2022-09-21T01:55:52;1.02;;;1.02;;
12476;SDS011;6303;51.504;6.300;2022-09-21T01:58:23;0.93;;;0.93;;
12476;SDS011;6303;51.504;6.300;2022-09-21T02:00:57;1.05;;;1.00;;
12476;SDS011;6303;51.504;6.300;2022-09-21T02:03:26;1.05;;;0.95;;
12476;SDS011;6303;51.504;6.300;2022-09-21T02:05:56;1.30;;;1.20;;
12476;SDS011;6303;51.504;6.300;2022-09-21T02:08:24;1.27;;;1.17;;
12476;SDS011;6303;51.504;6.300;2022-09-21T02:10:52;1.00;;;1.00;;
12476;SDS011;6303;51.504;6.300;2022-09-21T02:13:20;1.48;;;0.90;;
12476;SDS011;6303;51.504;6.300;2022-09-21T02:15:59;1.02;;;0.93;;
12476;SDS011;6303;51.504;6.300;2022-09-21T02:18:39;1.10;;;1.00;;
12476;SDS011;6303;51.504;6.300;2022-09-21T02:21:15;1.30;;;1.20;;
12476;SDS011;6303;51.504;6.300;2022-09-21T02:23:50;0.98;;;0.98;;
12476;SDS011;6303;51.504;6.300;2022-09-21T02:26:27;0.98;;;0.98;;
12476;SDS011;6303;51.504;6.300;2022-09-21T02:29:00;1.08;;;1.08;;
12476;SDS011;6303;51.504;6.300;2022-09-21T02:31:38;0.90;;;0.90;;
12476;SDS011;6303;51.504;6.300;2022-09-21T02:34:15;1.10;;;1.00;;
12476;SDS011;6303;51.504;6.300;2022-09-21T02:36:45;1.00;;;1.00;;
12476;SDS011;6303;51.504;6.300;2022-09-21T02:39:15;1.00;;;1.00;;
12476;SDS011;6303;51.504;6.300;2022-09-21T02:41:49;0.93;;;0.90;;
12476;SDS011;6303;51.504;6.300;2022-09-21T02:44:23;1.27;;;1.00;;
12476;SDS011;6303;51.504;6.300;2022-09-21T02:47:00;0.88;;;0.88;;
12476;SDS011;6303;51.504;6.300;2022-09-21T02:49:33;1.10;;;1.00;;
12476;SDS011;6303;51.504;6.300;2022-09-21T02:52:05;1.13;;;1.02;;
12476;SDS011;6303;51.504;6.300;2022-09-21T02:54:36;1.20;;;1.00;;
12476;SDS011;6303;51.504;6.300;2022-09-21T02:57:06;1.30;;;1.10;;
12476;SDS011;6303;51.504;6.300;2022-09-21T02:59:37;0.90;;;0.90;;
12476;SDS011;6303;51.504;6.300;2022-09-21T03:02:05;1.25;;;1.10;;
12476;SDS011;6303;51.504;6.300;2022-09-21T03:04:34;0.90;;;0.90;;
12476;SDS011;6303;51.504;6.300;2022-09-21T03:07:02;1.17;;;1.08;;
12476;SDS011;6303;51.504;6.300;2022-09-21T03:09:29;1.38;;;1.00;;
12476;SDS011;6303;51.504;6.300;2022-09-21T03:11:56;0.98;;;0.98;;
12476;SDS011;6303;51.504;6.300;2022-09-21T03:14:23;1.23;;;1.13;;
12476;SDS011;6303;51.504;6.300;2022-09-21T03:16:50;1.35;;;1.10;;
12476;SDS011;6303;51.504;6.300;2022-09-21T03:19:19;1.05;;;0.98;;
12476;SDS011;6303;51.504;6.300;2022-09-21T03:21:46;1.00;;;1.00;;
12476;SDS011;6303;51.504;6.300;2022-09-21T03:24:13;0.80;;;0.80;;
12476;SDS011;6303;51.504;6.300;2022-09-21T03:27:00;0.95;;;0.95;;
12476;SDS011;6303;51.504;6.300;2022-09-21T03:29:27;0.90;;;0.90;;
12476;SDS011;6303;51.504;6.300;2022-09-21T03:31:54;1.00;;;1.00;;
12476;SDS011;6303;51.504;6.300;2022-09-21T03:34:22;1.00;;;1.00;;
12476;SDS011;6303;51.504;6.300;2022-09-21T03:36:49;1.20;;;1.10;;
12476;SDS011;6303;51.504;6.300;2022-09-21T03:39:16;1.15;;;1.08;;
12476;SDS011;6303;51.504;6.300;2022-09-21T03:41:43;1.13;;;1.02;;
12476;SDS011;6303;51.504;6.300;2022-09-21T03:44:10;1.00;;;0.90;;
12476;SDS011;6303;51.504;6.300;2022-09-21T03:46:37;0.90;;;0.90;;
12476;SDS011;6303;51.504;6.300;2022-09-21T03:49:04;1.33;;;0.93;;
12476;SDS011;6303;51.504;6.300;2022-09-21T03:51:33;1.13;;;1.10;;
12476;SDS011;6303;51.504;6.300;2022-09-21T03:54:00;1.00;;;1.00;;
12476;SDS011;6303;51.504;6.300;2022-09-21T03:56:27;1.00;;;1.00;;
12476;SDS011;6303;51.504;6.300;2022-09-21T03:58:54;1.05;;;0.98;;
12476;SDS011;6303;51.504;6.300;2022-09-21T04:01:21;0.90;;;0.90;;
12476;SDS011;6303;51.504;6.300;2022-09-21T04:03:48;0.90;;;0.90;;
12476;SDS011;6303;51.504;6.300;2022-09-21T04:06:15;0.88;;;0.88;;
12476;SDS011;6303;51.504;6.300;2022-09-21T04:08:43;1.10;;;1.00;;
12476;SDS011;6303;51.504;6.300;2022-09-21T04:11:10;1.10;;;1.00;;
12476;SDS011;6303;51.504;6.300;2022-09-21T04:13:38;1.00;;;1.00;;
12476;SDS011;6303;51.504;6.300;2022-09-21T04:16:06;1.13;;;1.02;;
12476;SDS011;6303;51.504;6.300;2022-09-21T04:18:34;1.00;;;0.93;;
12476;SDS011;6303;51.504;6.300;2022-09-21T04:21:02;1.15;;;1.05;;
12476;SDS011;6303;51.504;6.300;2022-09-21T04:23:30;1.20;;;1.10;;
12476;SDS011;6303;51.504;6.300;2022-09-21T04:25:58;0.90;;;0.90;;
12476;SDS011;6303;51.504;6.300;2022-09-21T04:28:25;1.00;;;1.00;;
12476;SDS011;6303;51.504;6.300;2022-09-21T04:30:53;0.90;;;0.90;;
12476;SDS011;6303;51.504;6.300;2022-09-21T04:33:20;1.20;;;1.08;;
12476;SDS011;6303;51.504;6.300;2022-09-21T04:35:52;1.05;;;0.85;;
12476;SDS011;6303;51.504;6.300;2022-09-21T04:38:20;0.90;;;0.90;;
12476;SDS011;6303;51.504;6.300;2022-09-21T04:40:53;1.45;;;0.98;;
12476;SDS011;6303;51.504;6.300;2022-09-21T04:43:22;1.77;;;1.20;;
12476;SDS011;6303;51.504;6.300;2022-09-21T04:45:50;1.10;;;1.10;;
12476;SDS011;6303;51.504;6.300;2022-09-21T04:48:17;1.00;;;0.80;;
12476;SDS011;6303;51.504;6.300;2022-09-21T04:50:47;0.90;;;0.90;;
12476;SDS011;6303;51.504;6.300;2022-09-21T04:53:14;1.20;;;1.10;;
12476;SDS011;6303;51.504;6.300;2022-09-21T04:55:43;2.58;;;1.13;;
12476;SDS011;6303;51.504;6.300;2022-09-21T04:58:10;0.88;;;0.88;;
12476;SDS011;6303;51.504;6.300;2022-09-21T05:00:38;1.30;;;1.00;;
12476;SDS011;6303;51.504;6.300;2022-09-21T05:03:05;1.00;;;1.00;;
12476;SDS011;6303;51.504;6.300;2022-09-21T05:05:32;1.75;;;0.90;;
12476;SDS011;6303;51.504;6.300;2022-09-21T05:08:00;1.55;;;1.20;;
12476;SDS011;6303;51.504;6.300;2022-09-21T05:10:27;1.35;;;1.25;;
12476;SDS011;6303;51.504;6.300;2022-09-21T05:12:53;1.52;;;1.00;;
12476;SDS011;6303;51.504;6.300;2022-09-21T05:15:20;1.58;;;1.05;;
12476;SDS011;6303;51.504;6.300;2022-09-21T05:17:48;1.10;;;1.00;;
12476;SDS011;6303;51.504;6.300;2022-09-21T05:20:15;2.78;;;1.20;;
12476;SDS011;6303;51.504;6.300;2022-09-21T05:22:43;1.85;;;1.38;;
12476;SDS011;6303;51.504;6.300;2022-09-21T05:25:10;4.85;;;1.40;;
12476;SDS011;6303;51.504;6.300;2022-09-21T05:27:36;2.40;;;1.60;;
12476;SDS011;6303;51.504;6.300;2022-09-21T05:30:04;1.95;;;1.60;;
12476;SDS011;6303;51.504;6.300;2022-09-21T05:32:37;1.67;;;1.58;;
12476;SDS011;6303;51.504;6.300;2022-09-21T05:35:14;1.38;;;1.13;;
12476;SDS011;6303;51.504;6.300;2022-09-21T05:37:50;3.03;;;2.00;;
12476;SDS011;6303;51.504;6.300;2022-09-21T05:40:20;9.02;;;2.67;;
12476;SDS011;6303;51.504;6.300;2022-09-21T05:42:48;3.85;;;2.00;;
12476;SDS011;6303;51.504;6.300;2022-09-21T05:45:16;3.58;;;1.83;;
12476;SDS011;6303;51.504;6.300;2022-09-21T05:47:51;4.63;;;2.22;;
12476;SDS011;6303;51.504;6.300;2022-09-21T05:50:28;4.53;;;2.20;;
12476;SDS011;6303;51.504;6.300;2022-09-21T05:53:07;6.00;;;2.00;;
12476;SDS011;6303;51.504;6.300;2022-09-21T05:55:49;4.45;;;1.83;;
12476;SDS011;6303;51.504;6.300;2022-09-21T05:58:22;4.75;;;1.77;;
12476;SDS011;6303;51.504;6.300;2022-09-21T06:01:02;3.28;;;1.70;;
12476;SDS011;6303;51.504;6.300;2022-09-21T06:03:39;3.28;;;1.92;;
12476;SDS011;6303;51.504;6.300;2022-09-21T06:06:08;3.15;;;1.60;;
12476;SDS011;6303;51.504;6.300;2022-09-21T06:08:35;1.67;;;1.40;;
12476;SDS011;6303;51.504;6.300;2022-09-21T06:11:03;1.90;;;1.80;;
12476;SDS011;6303;51.504;6.300;2022-09-21T06:13:30;1.65;;;1.40;;
12476;SDS011;6303;51.504;6.300;2022-09-21T06:16:00;4.22;;;1.50;;
12476;SDS011;6303;51.504;6.300;2022-09-21T06:18:27;1.70;;;1.50;;
12476;SDS011;6303;51.504;6.300;2022-09-21T06:20:54;3.15;;;1.70;;
12476;SDS011;6303;51.504;6.300;2022-09-21T06:23:23;2.90;;;1.77;;
12476;SDS011;6303;51.504;6.300;2022-09-21T06:25:50;2.70;;;1.77;;
12476;SDS011;6303;51.504;6.300;2022-09-21T06:28:17;1.90;;;1.70;;
12476;SDS011;6303;51.504;6.300;2022-09-21T06:30:48;2.33;;;1.75;;
12476;SDS011;6303;51.504;6.300;2022-09-21T06:33:16;2.55;;;1.85;;
12476;SDS011;6303;51.504;6.300;2022-09-21T06:35:50;2.35;;;1.65;;
12476;SDS011;6303;51.504;6.300;2022-09-21T06:38:18;2.22;;;1.70;;
12476;SDS011;6303;51.504;6.300;2022-09-21T06:40:47;2.92;;;1.90;;
12476;SDS011;6303;51.504;6.300;2022-09-21T06:43:14;3.20;;;2.08;;
12476;SDS011;6303;51.504;6.300;2022-09-21T06:45:41;2.50;;;1.67;;
12476;SDS011;6303;51.504;6.300;2022-09-21T06:48:08;3.15;;;1.90;;
12476;SDS011;6303;51.504;6.300;2022-09-21T06:50:35;2.22;;;1.80;;
12476;SDS011;6303;51.504;6.300;2022-09-21T06:53:03;2.97;;;1.70;;
12476;SDS011;6303;51.504;6.300;2022-09-21T06:55:30;2.60;;;1.83;;
12476;SDS011;6303;51.504;6.300;2022-09-21T06:58:02;2.10;;;1.70;;
12476;SDS011;6303;51.504;6.300;2022-09-21T07:00:29;2.25;;;1.88;;
12476;SDS011;6303;51.504;6.300;2022-09-21T07:02:57;3.20;;;1.90;;
12476;SDS011;6303;51.504;6.300;2022-09-21T07:05:25;3.58;;;2.08;;
12476;SDS011;6303;51.504;6.300;2022-09-21T07:07:55;2.58;;;2.28;;
12476;SDS011;6303;51.504;6.300;2022-09-21T07:10:22;3.97;;;2.30;;
12476;SDS011;6303;51.504;6.300;2022-09-21T07:12:49;2.15;;;1.95;;
12476;SDS011;6303;51.504;6.300;2022-09-21T07:15:18;3.03;;;2.20;;
12476;SDS011;6303;51.504;6.300;2022-09-21T07:17:45;3.92;;;2.30;;
12476;SDS011;6303;51.504;6.300;2022-09-21T07:20:13;2.90;;;2.20;;
12476;SDS011;6303;51.504;6.300;2022-09-21T07:22:40;2.88;;;2.40;;
12476;SDS011;6303;51.504;6.300;2022-09-21T07:25:07;4.20;;;2.50;;
12476;SDS011;6303;51.504;6.300;2022-09-21T07:27:35;6.00;;;2.60;;
12476;SDS011;6303;51.504;6.300;2022-09-21T07:30:02;3.78;;;2.33;;
12476;SDS011;6303;51.504;6.300;2022-09-21T07:32:32;3.28;;;2.33;;
12476;SDS011;6303;51.504;6.300;2022-09-21T07:34:59;3.83;;;2.67;;
12476;SDS011;6303;51.504;6.300;2022-09-21T07:37:26;3.75;;;2.60;;
12476;SDS011;6303;51.504;6.300;2022-09-21T07:39:56;4.28;;;2.70;;
12476;SDS011;6303;51.504;6.300;2022-09-21T07:42:23;3.15;;;2.38;;
12476;SDS011;6303;51.504;6.300;2022-09-21T07:44:52;3.15;;;2.83;;
12476;SDS011;6303;51.504;6.300;2022-09-21T07:47:19;4.45;;;2.60;;
12476;SDS011;6303;51.504;6.300;2022-09-21T07:49:47;4.30;;;2.72;;
12476;SDS011;6303;51.504;6.300;2022-09-21T07:52:14;4.25;;;2.80;;
12476;SDS011;6303;51.504;6.300;2022-09-21T07:54:42;4.88;;;3.08;;
12476;SDS011;6303;51.504;6.300;2022-09-21T07:57:09;5.47;;;3.40;;
12476;SDS011;6303;51.504;6.300;2022-09-21T07:59:54;6.25;;;2.97;;
12476;SDS011;6303;51.504;6.300;2022-09-21T08:02:22;5.78;;;3.28;;
12476;SDS011;6303;51.504;6.300;2022-09-21T08:04:50;4.43;;;3.20;;
12476;SDS011;6303;51.504;6.300;2022-09-21T08:07:18;4.38;;;3.10;;
12476;SDS011;6303;51.504;6.300;2022-09-21T08:09:45;6.72;;;3.22;;
12476;SDS011;6303;51.504;6.300;2022-09-21T08:12:13;3.30;;;2.97;;
12476;SDS011;6303;51.504;6.300;2022-09-21T08:14:41;5.90;;;3.30;;
12476;SDS011;6303;51.504;6.300;2022-09-21T08:17:08;6.00;;;3.72;;
12476;SDS011;6303;51.504;6.300;2022-09-21T08:19:35;5.20;;;3.60;;
12476;SDS011;6303;51.504;6.300;2022-09-21T08:22:04;8.90;;;3.97;;
12476;SDS011;6303;51.504;6.300;2022-09-21T08:24:31;4.35;;;3.63;;
12476;SDS011;6303;51.504;6.300;2022-09-21T08:26:59;4.55;;;3.67;;
12476;SDS011;6303;51.504;6.300;2022-09-21T08:29:26;7.45;;;3.70;;
12476;SDS011;6303;51.504;6.300;2022-09-21T08:31:54;5.20;;;3.75;;
12476;SDS011;6303;51.504;6.300;2022-09-21T08:34:22;5.13;;;3.80;;
12476;SDS011;6303;51.504;6.300;2022-09-21T08:36:50;4.47;;;3.60;;
12476;SDS011;6303;51.504;6.300;2022-09-21T08:39:18;6.50;;;3.85;;
12476;SDS011;6303;51.504;6.300;2022-09-21T08:41:59;4.57;;;3.35;;
12476;SDS011;6303;51.504;6.300;2022-09-21T08:44:37;4.30;;;3.75;;
12476;SDS011;6303;51.504;6.300;2022-09-21T08:47:09;6.25;;;3.90;;
12476;SDS011;6303;51.504;6.300;2022-09-21T08:49:44;7.05;;;3.90;;
12476;SDS011;6303;51.504;6.300;2022-09-21T08:52:15;6.78;;;3.83;;
12476;SDS011;6303;51.504;6.300;2022-09-21T08:54:48;4.60;;;3.55;;
12476;SDS011;6303;51.504;6.300;2022-09-21T08:57:20;7.20;;;4.10;;
12476;SDS011;6303;51.504;6.300;2022-09-21T08:59:50;6.78;;;4.30;;
12476;SDS011;6303;51.504;6.300;2022-09-21T09:02:30;7.65;;;4.40;;
12476;SDS011;6303;51.504;6.300;2022-09-21T09:05:16;5.95;;;4.53;;
12476;SDS011;6303;51.504;6.300;2022-09-21T09:08:03;6.85;;;4.10;;
12476;SDS011;6303;51.504;6.300;2022-09-21T09:10:47;8.70;;;4.43;;
12476;SDS011;6303;51.504;6.300;2022-09-21T09:16:15;8.07;;;4.68;;
12476;SDS011;6303;51.504;6.300;2022-09-21T09:18:50;7.93;;;5.00;;
12476;SDS011;6303;51.504;6.300;2022-09-21T09:21:20;7.78;;;4.82;;
12476;SDS011;6303;51.504;6.300;2022-09-21T09:23:51;6.55;;;4.57;;
12476;SDS011;6303;51.504;6.300;2022-09-21T09:26:27;10.63;;;5.40;;
12476;SDS011;6303;51.504;6.300;2022-09-21T09:28:59;9.38;;;5.78;;
12476;SDS011;6303;51.504;6.300;2022-09-21T09:31:30;10.00;;;5.38;;
12476;SDS011;6303;51.504;6.300;2022-09-21T09:33:59;8.30;;;5.47;;
12476;SDS011;6303;51.504;6.300;2022-09-21T09:36:35;9.48;;;6.15;;
12476;SDS011;6303;51.504;6.300;2022-09-21T09:39:08;10.30;;;5.32;;
12476;SDS011;6303;51.504;6.300;2022-09-21T09:41:45;9.13;;;5.38;;
12476;SDS011;6303;51.504;6.300;2022-09-21T09:44:38;8.95;;;5.03;;
12476;SDS011;6303;51.504;6.300;2022-09-21T09:47:18;8.13;;;5.32;;
12476;SDS011;6303;51.504;6.300;2022-09-21T09:49:56;8.77;;;5.15;;
12476;SDS011;6303;51.504;6.300;2022-09-21T09:52:30;9.50;;;5.32;;
12476;SDS011;6303;51.504;6.300;2022-09-21T09:54:58;9.50;;;5.53;;
12476;SDS011;6303;51.504;6.300;2022-09-21T09:57:28;8.15;;;5.20;;
12476;SDS011;6303;51.504;6.300;2022-09-21T09:59:57;7.55;;;5.15;;
12476;SDS011;6303;51.504;6.300;2022-09-21T10:02:44;7.15;;;4.93;;
12476;SDS011;6303;51.504;6.300;2022-09-21T10:05:18;9.05;;;5.50;;
12476;SDS011;6303;51.504;6.300;2022-09-21T10:07:49;11.30;;;4.82;;
12476;SDS011;6303;51.504;6.300;2022-09-21T10:10:31;7.88;;;5.20;;
12476;SDS011;6303;51.504;6.300;2022-09-21T10:13:11;7.47;;;4.95;;
12476;SDS011;6303;51.504;6.300;2022-09-21T10:15:43;7.97;;;5.35;;
12476;SDS011;6303;51.504;6.300;2022-09-21T10:18:15;9.88;;;5.00;;
12476;SDS011;6303;51.504;6.300;2022-09-21T10:20:54;6.90;;;4.80;;
12476;SDS011;6303;51.504;6.300;2022-09-21T10:23:26;9.50;;;5.20;;
12476;SDS011;6303;51.504;6.300;2022-09-21T10:25:56;9.25;;;5.20;;
12476;SDS011;6303;51.504;6.300;2022-09-21T10:28:28;6.80;;;4.30;;
12476;SDS011;6303;51.504;6.300;2022-09-21T10:31:08;8.48;;;4.72;;
12476;SDS011;6303;51.504;6.300;2022-09-21T10:36:33;7.40;;;4.00;;
12476;SDS011;6303;51.504;6.300;2022-09-21T10:42:00;7.38;;;3.88;;
12476;SDS011;6303;51.504;6.300;2022-09-21T10:44:39;6.70;;;4.40;;
12476;SDS011;6303;51.504;6.300;2022-09-21T10:47:17;8.05;;;3.95;;
12476;SDS011;6303;51.504;6.300;2022-09-21T10:49:47;7.35;;;3.88;;
12476;SDS011;6303;51.504;6.300;2022-09-21T10:52:16;6.93;;;4.35;;
12476;SDS011;6303;51.504;6.300;2022-09-21T10:54:46;7.05;;;4.53;;
12476;SDS011;6303;51.504;6.300;2022-09-21T10:57:17;7.28;;;4.10;;
12476;SDS011;6303;51.504;6.300;2022-09-21T10:59:48;7.50;;;4.05;;
12476;SDS011;6303;51.504;6.300;2022-09-21T11:02:23;4.88;;;3.38;;
12476;SDS011;6303;51.504;6.300;2022-09-21T11:05:11;6.45;;;3.80;;
12476;SDS011;6303;51.504;6.300;2022-09-21T11:07:42;5.72;;;3.55;;
12476;SDS011;6303;51.504;6.300;2022-09-21T11:10:15;4.28;;;3.25;;
12476;SDS011;6303;51.504;6.300;2022-09-21T11:12:50;5.50;;;3.50;;
12476;SDS011;6303;51.504;6.300;2022-09-21T11:15:30;5.63;;;3.78;;
12476;SDS011;6303;51.504;6.300;2022-09-21T11:18:07;6.63;;;3.63;;
12476;SDS011;6303;51.504;6.300;2022-09-21T11:20:42;6.28;;;3.40;;
12476;SDS011;6303;51.504;6.300;2022-09-21T11:23:20;4.45;;;3.28;;
12476;SDS011;6303;51.504;6.300;2022-09-21T11:25:59;4.32;;;2.97;;
12476;SDS011;6303;51.504;6.300;2022-09-21T11:28:37;5.70;;;3.47;;
12476;SDS011;6303;51.504;6.300;2022-09-21T11:34:19;6.82;;;3.58;;
12476;SDS011;6303;51.504;6.300;2022-09-21T11:37:13;6.68;;;3.42;;
12476;SDS011;6303;51.504;6.300;2022-09-21T11:39:59;5.07;;;3.22;;
12476;SDS011;6303;51.504;6.300;2022-09-21T11:42:40;4.93;;;3.58;;
12476;SDS011;6303;51.504;6.300;2022-09-21T11:45:19;3.97;;;2.80;;
12476;SDS011;6303;51.504;6.300;2022-09-21T11:48:01;5.68;;;3.03;;
12476;SDS011;6303;51.504;6.300;2022-09-21T11:50:38;4.57;;;2.90;;
12476;SDS011;6303;51.504;6.300;2022-09-21T11:53:16;4.35;;;2.83;;
12476;SDS011;6303;51.504;6.300;2022-09-21T11:58:43;5.50;;;3.38;;
12476;SDS011;6303;51.504;6.300;2022-09-21T12:01:19;6.30;;;2.80;;
12476;SDS011;6303;51.504;6.300;2022-09-21T12:04:08;6.82;;;3.30;;
12476;SDS011;6303;51.504;6.300;2022-09-21T12:06:59;7.88;;;3.33;;
12476;SDS011;6303;51.504;6.300;2022-09-21T12:12:55;12.50;;;3.90;;
12476;SDS011;6303;51.504;6.300;2022-09-21T12:15:29;14.75;;;4.10;;
12476;SDS011;6303;51.504;6.300;2022-09-21T12:18:05;21.70;;;4.60;;
12476;SDS011;6303;51.504;6.300;2022-09-21T12:20:41;17.90;;;4.30;;
12476;SDS011;6303;51.504;6.300;2022-09-21T12:23:14;15.13;;;4.32;;
12476;SDS011;6303;51.504;6.300;2022-09-21T12:25:46;9.52;;;3.72;;
12476;SDS011;6303;51.504;6.300;2022-09-21T12:28:19;10.32;;;3.75;;
12476;SDS011;6303;51.504;6.300;2022-09-21T12:30:50;8.38;;;3.65;;
12476;SDS011;6303;51.504;6.300;2022-09-21T12:33:23;6.30;;;3.65;;
12476;SDS011;6303;51.504;6.300;2022-09-21T12:36:01;7.22;;;3.40;;
12476;SDS011;6303;51.504;6.300;2022-09-21T12:38:34;8.40;;;3.40;;
12476;SDS011;6303;51.504;6.300;2022-09-21T12:41:08;6.28;;;3.55;;
12476;SDS011;6303;51.504;6.300;2022-09-21T12:43:41;6.38;;;3.47;;
12476;SDS011;6303;51.504;6.300;2022-09-21T12:46:13;4.82;;;3.28;;
12476;SDS011;6303;51.504;6.300;2022-09-21T12:48:45;6.15;;;3.20;;
12476;SDS011;6303;51.504;6.300;2022-09-21T12:51:15;4.90;;;2.85;;
12476;SDS011;6303;51.504;6.300;2022-09-21T12:53:49;5.55;;;2.92;;
12476;SDS011;6303;51.504;6.300;2022-09-21T12:56:23;4.75;;;3.10;;
12476;SDS011;6303;51.504;6.300;2022-09-21T12:59:04;4.80;;;2.83;;
12476;SDS011;6303;51.504;6.300;2022-09-21T13:01:40;5.30;;;3.28;;
12476;SDS011;6303;51.504;6.300;2022-09-21T13:04:16;3.75;;;2.80;;
12476;SDS011;6303;51.504;6.300;2022-09-21T13:10:13;4.13;;;2.45;;
12476;SDS011;6303;51.504;6.300;2022-09-21T13:12:43;4.13;;;2.53;;
12476;SDS011;6303;51.504;6.300;2022-09-21T13:15:24;4.50;;;2.70;;
12476;SDS011;6303;51.504;6.300;2022-09-21T13:17:56;4.47;;;2.35;;
12476;SDS011;6303;51.504;6.300;2022-09-21T13:20:25;3.25;;;2.38;;
12476;SDS011;6303;51.504;6.300;2022-09-21T13:22:59;3.00;;;2.20;;
12476;SDS011;6303;51.504;6.300;2022-09-21T13:25:28;3.97;;;2.30;;
12476;SDS011;6303;51.504;6.300;2022-09-21T13:27:58;3.47;;;2.13;;
12476;SDS011;6303;51.504;6.300;2022-09-21T13:30:29;3.30;;;2.33;;
12476;SDS011;6303;51.504;6.300;2022-09-21T13:32:58;3.03;;;2.33;;
12476;SDS011;6303;51.504;6.300;2022-09-21T13:35:47;2.90;;;2.15;;
12476;SDS011;6303;51.504;6.300;2022-09-21T13:38:23;4.75;;;2.50;;
12476;SDS011;6303;51.504;6.300;2022-09-21T13:40:55;4.50;;;2.70;;
12476;SDS011;6303;51.504;6.300;2022-09-21T13:43:41;3.83;;;2.60;;
12476;SDS011;6303;51.504;6.300;2022-09-21T13:49:20;4.68;;;2.97;;
12476;SDS011;6303;51.504;6.300;2022-09-21T13:51:52;3.45;;;2.70;;
12476;SDS011;6303;51.504;6.300;2022-09-21T13:54:24;3.50;;;2.60;;
12476;SDS011;6303;51.504;6.300;2022-09-21T13:57:05;4.10;;;2.80;;
12476;SDS011;6303;51.504;6.300;2022-09-21T13:59:46;3.67;;;3.03;;
12476;SDS011;6303;51.504;6.300;2022-09-21T14:02:21;4.28;;;2.85;;
12476;SDS011;6303;51.504;6.300;2022-09-21T14:04:57;3.20;;;2.70;;
12476;SDS011;6303;51.504;6.300;2022-09-21T14:07:30;3.08;;;2.60;;
12476;SDS011;6303;51.504;6.300;2022-09-21T14:10:00;4.22;;;2.70;;
12476;SDS011;6303;51.504;6.300;2022-09-21T14:12:32;3.75;;;2.90;;
12476;SDS011;6303;51.504;6.300;2022-09-21T14:15:08;5.63;;;3.25;;
12476;SDS011;6303;51.504;6.300;2022-09-21T14:21:07;4.28;;;2.42;;
12476;SDS011;6303;51.504;6.300;2022-09-21T14:26:52;4.47;;;2.88;;
12476;SDS011;6303;51.504;6.300;2022-09-21T14:29:23;4.03;;;2.58;;
12476;SDS011;6303;51.504;6.300;2022-09-21T14:31:55;2.70;;;2.50;;
12476;SDS011;6303;51.504;6.300;2022-09-21T14:34:29;3.75;;;2.60;;
12476;SDS011;6303;51.504;6.300;2022-09-21T14:37:01;4.43;;;2.50;;
12476;SDS011;6303;51.504;6.300;2022-09-21T14:39:32;5.53;;;2.40;;
12476;SDS011;6303;51.504;6.300;2022-09-21T14:42:05;5.18;;;2.60;;
12476;SDS011;6303;51.504;6.300;2022-09-21T14:44:36;3.42;;;2.50;;
12476;SDS011;6303;51.504;6.300;2022-09-21T14:47:17;3.80;;;2.40;;
12476;SDS011;6303;51.504;6.300;2022-09-21T14:50:07;3.60;;;2.47;;
12476;SDS011;6303;51.504;6.300;2022-09-21T14:53:00;3.88;;;2.13;;
12476;SDS011;6303;51.504;6.300;2022-09-21T14:56:13;5.35;;;2.42;;
12476;SDS011;6303;51.504;6.300;2022-09-21T14:58:55;5.47;;;2.60;;
12476;SDS011;6303;51.504;6.300;2022-09-21T15:01:36;4.18;;;2.40;;
12476;SDS011;6303;51.504;6.300;2022-09-21T15:07:19;5.32;;;2.53;;
12476;SDS011;6303;51.504;6.300;2022-09-21T15:13:16;5.03;;;2.30;;
12476;SDS011;6303;51.504;6.300;2022-09-21T15:16:03;4.53;;;2.40;;
12476;SDS011;6303;51.504;6.300;2022-09-21T15:18:43;5.72;;;2.30;;
12476;SDS011;6303;51.504;6.300;2022-09-21T15:21:18;3.63;;;1.92;;
12476;SDS011;6303;51.504;6.300;2022-09-21T15:23:48;3.88;;;2.35;;
12476;SDS011;6303;51.504;6.300;2022-09-21T15:26:18;5.68;;;2.45;;
12476;SDS011;6303;51.504;6.300;2022-09-21T15:28:49;3.97;;;1.98;;
12476;SDS011;6303;51.504;6.300;2022-09-21T15:31:20;3.80;;;2.05;;
12476;SDS011;6303;51.504;6.300;2022-09-21T15:33:47;3.60;;;2.20;;
12476;SDS011;6303;51.504;6.300;2022-09-21T15:36:20;3.08;;;2.00;;
12476;SDS011;6303;51.504;6.300;2022-09-21T15:38:49;3.05;;;2.05;;
12476;SDS011;6303;51.504;6.300;2022-09-21T15:41:35;7.45;;;2.13;;
12476;SDS011;6303;51.504;6.300;2022-09-21T15:44:16;2.85;;;2.08;;
12476;SDS011;6303;51.504;6.300;2022-09-21T15:46:45;3.05;;;2.20;;
12476;SDS011;6303;51.504;6.300;2022-09-21T15:49:16;4.47;;;1.90;;
12476;SDS011;6303;51.504;6.300;2022-09-21T15:51:46;3.47;;;2.10;;
12476;SDS011;6303;51.504;6.300;2022-09-21T15:54:22;4.45;;;2.17;;
12476;SDS011;6303;51.504;6.300;2022-09-21T15:56:56;4.95;;;2.15;;
12476;SDS011;6303;51.504;6.300;2022-09-21T15:59:24;5.00;;;2.58;;
12476;SDS011;6303;51.504;6.300;2022-09-21T16:01:55;4.40;;;2.20;;
12476;SDS011;6303;51.504;6.300;2022-09-21T16:04:25;3.63;;;2.17;;
12476;SDS011;6303;51.504;6.300;2022-09-21T16:06:57;3.97;;;2.00;;
12476;SDS011;6303;51.504;6.300;2022-09-21T16:09:41;4.72;;;2.38;;
12476;SDS011;6303;51.504;6.300;2022-09-21T16:12:36;3.03;;;2.20;;